Time;durP1;ratioP1;P1;durP2;ratioP2;P2;SDS_P1;SDS_P2;PMS_P1;PMS_P2;Temp;Humidity;BMP_temperature;BMP_pressure;BME280_temperature;BME280_humidity;BME280_pressure;Samples;Min_cycle;Max_cycle;Signal;HPM_P1;HPM_P2
2023/06/19 00:00:02;;;;;;;13.30;12.10;;;21.00;94.60;;;;;;5051611;28;20494;-49
2023/06/19 00:02:38;;;;;;;12.07;11.17;;;21.00;94.80;;;;;;5051478;28;20452;-48
2023/06/19 00:05:05;;;;;;;12.63;11.63;;;21.00;94.90;;;;;;5054674;28;20486;-48
2023/06/19 00:07:32;;;;;;;12.30;11.20;;;21.00;95.00;;;;;;5055800;28;20438;-48
2023/06/19 00:09:58;;;;;;;11.90;10.90;;;20.90;95.10;;;;;;5055591;28;20441;-47
2023/06/19 00:12:26;;;;;;;13.23;12.17;;;20.90;95.30;;;;;;5055673;28;20432;-48
2023/06/19 00:14:53;;;;;;;13.20;12.00;;;20.90;95.40;;;;;;5055389;28;20448;-48
2023/06/19 00:17:19;;;;;;;12.97;11.97;;;20.90;95.40;;;;;;5055045;28;20915;-48
2023/06/19 00:19:48;;;;;;;12.90;11.80;;;20.80;95.70;;;;;;5054663;28;20460;-48
2023/06/19 00:22:15;;;;;;;13.30;12.03;;;20.80;95.70;;;;;;5055227;28;20457;-49
2023/06/19 00:24:41;;;;;;;13.63;12.53;;;20.80;95.80;;;;;;5054972;28;20440;-49
2023/06/19 00:27:08;;;;;;;12.60;11.60;;;20.80;95.90;;;;;;5055310;28;20428;-48
2023/06/19 00:29:36;;;;;;;14.40;13.00;;;20.80;95.90;;;;;;5054354;28;20551;-49
2023/06/19 00:32:03;;;;;;;13.07;12.00;;;20.80;96.10;;;;;;5055392;28;20757;-49
2023/06/19 00:34:30;;;;;;;13.27;11.97;;;20.80;96.10;;;;;;5055011;28;20448;-49
2023/06/19 00:36:57;;;;;;;13.90;12.70;;;20.80;96.30;;;;;;5055446;28;20429;-49
2023/06/19 00:39:25;;;;;;;14.20;13.10;;;20.90;96.30;;;;;;5054916;28;20941;-48
2023/06/19 00:41:52;;;;;;;13.23;12.20;;;20.90;96.40;;;;;;5054975;28;20494;-49
2023/06/19 00:44:19;;;;;;;13.50;12.30;;;20.90;96.50;;;;;;5054750;28;20450;-48
2023/06/19 00:46:47;;;;;;;13.67;11.43;;;20.90;96.50;;;;;;5036628;28;20520;-48
2023/06/19 00:49:15;;;;;;;14.37;13.07;;;20.90;96.60;;;;;;5054058;28;20969;-47
2023/06/19 00:51:41;;;;;;;13.67;12.57;;;20.90;96.60;;;;;;5036613;28;20512;-48
2023/06/19 00:54:09;;;;;;;13.63;12.57;;;20.90;96.70;;;;;;5054491;28;20428;-49
2023/06/19 00:56:37;;;;;;;12.90;11.90;;;20.90;96.70;;;;;;5036512;28;20541;-49
2023/06/19 00:59:11;;;;;;;14.23;12.97;;;20.90;96.80;;;;;;5053935;28;20855;-48
2023/06/19 01:01:38;;;;;;;14.00;12.83;;;20.90;96.80;;;;;;5054305;28;20446;-48
2023/06/19 01:04:06;;;;;;;14.43;13.23;;;20.90;96.90;;;;;;5036565;28;20461;-48
2023/06/19 01:06:41;;;;;;;13.60;12.40;;;20.90;96.90;;;;;;5054165;28;20491;-48
2023/06/19 01:09:11;;;;;;;13.57;12.37;;;21.00;97.00;;;;;;5053701;28;20547;-48
2023/06/19 01:11:44;;;;;;;13.20;12.10;;;20.90;97.00;;;;;;5036063;28;20467;-48
2023/06/19 01:14:17;;;;;;;13.53;12.43;;;20.90;97.10;;;;;;5036233;28;20838;-48
2023/06/19 01:16:45;;;;;;;15.13;13.93;;;20.90;97.10;;;;;;5035539;28;20445;-49
2023/06/19 01:19:18;;;;;;;16.23;14.60;;;20.90;97.10;;;;;;5053483;28;20445;-49
2023/06/19 01:21:45;;;;;;;13.23;12.20;;;20.90;97.20;;;;;;5053829;28;20964;-49
2023/06/19 01:24:13;;;;;;;15.17;13.77;;;20.90;97.20;;;;;;5053824;28;20440;-49
2023/06/19 01:26:40;;;;;;;14.83;13.60;;;20.90;97.20;;;;;;5053650;28;20617;-49
2023/06/19 01:29:07;;;;;;;13.17;12.20;;;20.90;97.30;;;;;;5088703;22;20493;-45
2023/06/19 01:31:37;;;;;;;13.93;12.93;;;20.80;97.30;;;;;;5074229;28;20440;-44
2023/06/19 01:34:07;;;;;;;14.33;13.27;;;20.80;97.40;;;;;;5074213;28;20436;-45
2023/06/19 01:36:34;;;;;;;13.73;12.73;;;20.80;97.40;;;;;;5072740;28;20463;-45
2023/06/19 01:39:01;;;;;;;14.80;13.50;;;20.70;97.50;;;;;;5073771;28;20960;-46
2023/06/19 01:41:31;;;;;;;15.30;14.10;;;20.70;97.60;;;;;;5055973;28;20453;-46
2023/06/19 01:43:59;;;;;;;14.10;13.00;;;20.70;97.60;;;;;;5056282;28;20453;-46
2023/06/19 01:46:29;;;;;;;13.93;12.73;;;20.70;97.70;;;;;;5055749;28;20507;-46
2023/06/19 01:48:59;;;;;;;14.70;13.60;;;20.70;97.80;;;;;;5055496;28;20467;-47
2023/06/19 01:51:26;;;;;;;14.07;13.07;;;20.70;97.80;;;;;;5055868;28;20447;-46
2023/06/19 01:53:52;;;;;;;14.43;13.33;;;20.70;97.90;;;;;;5073746;28;20432;-45
2023/06/19 01:56:19;;;;;;;14.70;13.60;;;20.80;98.00;;;;;;5055814;28;20451;-45
2023/06/19 01:58:47;;;;;;;15.27;13.80;;;20.70;98.00;;;;;;5055381;28;20466;-47
2023/06/19 02:01:14;;;;;;;14.30;13.20;;;20.70;98.00;;;;;;5055783;28;20463;-46
2023/06/19 02:03:40;;;;;;;15.27;13.90;;;20.70;98.10;;;;;;5073514;28;20436;-46
2023/06/19 02:06:07;;;;;;;14.63;13.43;;;20.60;98.10;;;;;;5055427;28;21015;-45
2023/06/19 02:08:33;;;;;;;15.27;14.07;;;20.40;98.00;;;;;;5055849;28;20459;-46
2023/06/19 02:11:00;;;;;;;14.50;13.10;;;20.60;98.20;;;;;;5055353;28;20452;-46
2023/06/19 02:13:26;;;;;;;15.50;14.20;;;20.60;98.20;;;;;;5073267;28;21027;-46
2023/06/19 02:15:54;;;;;;;15.00;13.80;;;20.70;98.20;;;;;;5055388;28;20979;-46
2023/06/19 02:18:24;;;;;;;14.90;13.50;;;20.60;98.20;;;;;;5055247;28;20496;-45
2023/06/19 02:20:52;;;;;;;15.20;14.00;;;20.60;98.20;;;;;;5055454;28;20455;-46
2023/06/19 02:23:18;;;;;;;13.97;12.87;;;20.60;98.20;;;;;;5073256;28;20432;-46
2023/06/19 02:25:45;;;;;;;15.83;14.33;;;20.50;98.20;;;;;;5055043;28;20471;-45
2023/06/19 02:28:12;;;;;;;14.37;13.07;;;20.60;98.20;;;;;;5071685;28;20453;-47
2023/06/19 02:30:38;;;;;;;15.20;14.00;;;20.70;98.30;;;;;;5055110;28;20419;-46
2023/06/19 02:33:06;;;;;;;15.73;14.50;;;20.60;98.20;;;;;;5073025;28;20443;-45
2023/06/19 02:35:33;;;;;;;14.50;13.40;;;20.60;98.20;;;;;;5072878;28;20937;-46
2023/06/19 02:37:59;;;;;;;16.53;14.97;;;20.60;98.20;;;;;;5072814;28;20432;-46
2023/06/19 02:40:26;;;;;;;15.50;14.20;;;20.00;97.90;;;;;;5072449;28;20967;-45
2023/06/19 02:42:53;;;;;;;16.00;14.60;;;20.60;98.20;;;;;;5054922;28;20490;-46
2023/06/19 02:45:20;;;;;;;16.03;14.77;;;20.60;98.20;;;;;;5054659;28;20441;-46
2023/06/19 02:47:48;;;;;;;13.90;12.70;;;20.60;98.60;;;;;;5054680;28;20502;-46
2023/06/19 02:50:16;;;;;;;15.13;13.90;;;20.60;98.30;;;;;;5072337;28;20443;-46
2023/06/19 02:52:42;;;;;;;15.93;14.73;;;20.70;98.40;;;;;;5072685;28;20921;-46
2023/06/19 02:55:09;;;;;;;15.30;14.10;;;20.90;98.50;;;;;;5054740;28;20463;-44
2023/06/19 02:57:36;;;;;;;16.60;15.30;;;20.70;98.40;;;;;;5072904;28;20444;-46
2023/06/19 03:00:05;;;;;;;14.07;12.87;;;20.90;98.50;;;;;;5054164;28;20478;-46
2023/06/19 03:02:32;;;;;;;15.60;14.30;;;20.70;98.40;;;;;;5072652;28;20775;-45
2023/06/19 03:05:00;;;;;;;16.47;15.17;;;20.90;98.50;;;;;;5072945;28;20974;-46
2023/06/19 03:07:28;;;;;;;16.23;14.73;;;20.70;98.40;;;;;;5072485;28;20480;-47
2023/06/19 03:09:55;;;;;;;15.30;14.20;;;20.70;98.40;;;;;;5054017;28;20569;-45
2023/06/19 03:12:22;;;;;;;16.70;15.10;;;20.90;98.50;;;;;;5054435;28;20898;-46
2023/06/19 03:14:49;;;;;;;16.03;14.63;;;20.80;98.30;;;;;;5054395;28;20538;-47
2023/06/19 03:17:15;;;;;;;15.50;14.30;;;20.80;98.30;;;;;;5054018;28;20454;-47
2023/06/19 03:19:42;;;;;;;15.07;13.87;;;21.20;98.50;;;;;;5053872;28;20566;-46
2023/06/19 03:22:09;;;;;;;16.87;15.33;;;20.80;98.20;;;;;;5054308;28;20964;-46
2023/06/19 03:24:37;;;;;;;15.40;14.20;;;21.00;98.30;;;;;;5072060;28;20445;-45
2023/06/19 03:27:20;;;;;;;16.80;15.30;;;20.80;98.10;;;;;;5054181;28;21030;-45
2023/06/19 03:29:47;;;;;;;15.30;14.20;;;20.90;98.20;;;;;;5053840;28;20473;-46
2023/06/19 03:32:19;;;;;;;15.67;14.37;;;20.90;98.10;;;;;;5054264;28;20451;-46
2023/06/19 03:34:48;;;;;;;16.57;15.17;;;20.90;98.30;;;;;;5054002;28;20448;-47
2023/06/19 03:37:15;;;;;;;16.07;14.77;;;21.30;98.10;;;;;;5053940;28;20448;-46
2023/06/19 03:39:44;;;;;;;16.10;14.90;;;21.10;97.90;;;;;;5053274;28;20475;-44
2023/06/19 03:42:12;;;;;;;15.80;14.50;;;21.10;97.80;;;;;;5054002;28;20457;-47
2023/06/19 03:44:38;;;;;;;15.37;14.00;;;21.10;97.70;;;;;;5053772;28;20432;-45
2023/06/19 03:47:06;;;;;;;16.43;15.13;;;21.20;97.70;;;;;;5054066;28;20491;-46
2023/06/19 03:49:32;;;;;;;15.80;14.50;;;21.10;97.60;;;;;;5071777;28;20824;-45
2023/06/19 03:51:59;;;;;;;16.30;14.77;;;21.10;97.50;;;;;;5072006;28;20440;-45
2023/06/19 03:54:26;;;;;;;16.47;15.00;;;21.10;97.50;;;;;;5053863;28;20444;-48
2023/06/19 03:56:54;;;;;;;15.40;14.20;;;21.20;97.50;;;;;;5054049;28;20792;-45
2023/06/19 03:59:20;;;;;;;16.00;14.53;;;21.20;97.40;;;;;;5053630;28;20467;-46
2023/06/19 04:01:47;;;;;;;14.80;13.40;;;21.20;97.40;;;;;;5053933;28;20452;-45
2023/06/19 04:04:14;;;;;;;16.10;14.80;;;21.20;97.30;;;;;;5054031;28;20456;-45
2023/06/19 04:06:40;;;;;;;16.93;15.63;;;21.40;97.40;;;;;;5053952;28;21161;-46
2023/06/19 04:09:07;;;;;;;14.20;13.00;;;21.20;97.30;;;;;;5053598;28;20473;-44
2023/06/19 04:11:33;;;;;;;16.17;14.87;;;21.20;97.30;;;;;;5053682;28;20455;-45
2023/06/19 04:14:03;;;;;;;17.27;15.67;;;21.20;97.40;;;;;;5053967;28;20457;-45
2023/06/19 04:16:30;;;;;;;16.57;14.90;;;20.90;97.20;;;;;;5054154;28;20448;-46
2023/06/19 04:18:56;;;;;;;17.57;15.97;;;21.20;97.30;;;;;;5070985;28;20463;-47
2023/06/19 04:21:24;;;;;;;16.17;14.80;;;21.20;97.20;;;;;;5053507;28;20766;-46
2023/06/19 04:23:51;;;;;;;15.70;14.30;;;21.20;97.20;;;;;;5053802;28;20482;-45
2023/06/19 04:26:18;;;;;;;16.70;15.30;;;21.20;97.20;;;;;;5053482;28;20506;-45
2023/06/19 04:28:45;;;;;;;17.50;16.00;;;21.20;97.20;;;;;;5052977;28;20487;-45
2023/06/19 04:31:17;;;;;;;16.50;15.20;;;21.20;97.10;;;;;;5071853;28;20445;-46
2023/06/19 04:33:44;;;;;;;15.87;14.47;;;21.20;97.10;;;;;;5071507;28;20427;-45
2023/06/19 04:36:11;;;;;;;17.70;15.97;;;21.70;97.30;;;;;;5071480;28;20424;-47
2023/06/19 04:38:37;;;;;;;15.77;14.47;;;21.30;97.10;;;;;;5071251;28;20459;-46
2023/06/19 04:41:04;;;;;;;15.97;14.60;;;21.30;97.00;;;;;;5071862;28;20441;-45
2023/06/19 04:43:30;;;;;;;16.73;15.43;;;21.30;97.10;;;;;;5071609;28;20434;-46
2023/06/19 04:45:57;;;;;;;16.83;15.13;;;21.30;97.00;;;;;;5071461;28;20945;-46
2023/06/19 04:48:25;;;;;;;15.60;14.20;;;21.40;97.00;;;;;;5071455;28;20976;-46
2023/06/19 04:50:52;;;;;;;15.77;14.47;;;21.40;97.00;;;;;;5073107;28;20477;-45
2023/06/19 04:53:19;;;;;;;16.70;15.00;;;21.10;96.80;;;;;;5075434;28;20436;-48
2023/06/19 04:55:46;;;;;;;16.50;15.20;;;21.40;97.00;;;;;;5057289;28;20538;-46
2023/06/19 04:58:12;;;;;;;17.10;15.70;;;21.60;97.10;;;;;;5074849;28;20539;-46
2023/06/19 05:00:39;;;;;;;16.53;15.13;;;21.40;96.90;;;;;;5074902;28;20789;-46
2023/06/19 05:03:05;;;;;;;16.43;15.07;;;21.40;96.90;;;;;;5074790;28;20441;-46
2023/06/19 05:05:33;;;;;;;17.87;16.10;;;21.50;96.90;;;;;;5056846;28;20457;-46
2023/06/19 05:08:02;;;;;;;16.53;15.10;;;21.50;97.00;;;;;;5074403;28;20483;-46
2023/06/19 05:10:28;;;;;;;18.13;16.63;;;21.40;96.80;;;;;;5074700;28;20536;-46
2023/06/19 05:12:55;;;;;;;16.07;14.57;;;21.50;96.80;;;;;;5075185;28;20467;-45
2023/06/19 05:15:21;;;;;;;17.53;15.80;;;21.50;96.50;;;;;;5074890;28;20764;-46
2023/06/19 05:17:48;;;;;;;18.13;16.33;;;21.30;96.70;;;;;;5074846;28;20432;-46
2023/06/19 05:20:15;;;;;;;17.00;15.50;;;21.50;96.80;;;;;;5074797;28;20433;-46
2023/06/19 05:22:43;;;;;;;16.87;15.43;;;21.50;96.90;;;;;;5074789;28;20458;-46
2023/06/19 05:25:10;;;;;;;15.50;14.20;;;21.40;96.90;;;;;;5074286;28;20881;-47
2023/06/19 05:27:36;;;;;;;17.33;15.90;;;21.50;96.90;;;;;;5075020;28;20553;-47
2023/06/19 05:30:04;;;;;;;17.20;15.70;;;21.50;96.90;;;;;;5073926;28;20468;-45
2023/06/19 05:32:31;;;;;;;16.90;15.50;;;21.50;96.90;;;;;;5074070;28;20445;-46
2023/06/19 05:34:57;;;;;;;17.97;16.50;;;21.50;96.90;;;;;;5074287;28;20480;-45
2023/06/19 05:37:24;;;;;;;17.60;16.20;;;21.60;96.90;;;;;;5073656;28;20437;-48
2023/06/19 05:39:52;;;;;;;17.10;15.70;;;21.60;96.90;;;;;;5074274;28;20457;-46
2023/06/19 05:42:19;;;;;;;15.70;14.50;;;21.50;96.80;;;;;;5074327;28;20433;-47
2023/06/19 05:44:45;;;;;;;16.03;14.80;;;21.40;96.80;;;;;;5073707;28;20433;-46
2023/06/19 05:47:12;;;;;;;15.50;14.30;;;21.60;96.90;;;;;;5073098;28;20974;-46
2023/06/19 05:49:40;;;;;;;18.17;16.47;;;21.60;96.90;;;;;;5073042;28;20537;-48
2023/06/19 05:52:08;;;;;;;16.87;15.47;;;21.60;96.90;;;;;;5073454;28;20441;-46
2023/06/19 05:54:34;;;;;;;15.87;14.57;;;21.70;96.90;;;;;;5073647;28;20949;-46
2023/06/19 05:57:02;;;;;;;17.50;16.10;;;22.00;97.00;;;;;;5074044;28;20429;-45
2023/06/19 05:59:29;;;;;;;17.70;16.20;;;21.70;96.90;;;;;;5072749;28;20484;-47
2023/06/19 06:01:56;;;;;;;18.90;17.17;;;21.70;96.90;;;;;;5073434;28;20430;-46
2023/06/19 06:04:22;;;;;;;20.00;18.07;;;21.80;97.00;;;;;;5072926;28;20515;-45
2023/06/19 06:06:49;;;;;;;18.23;16.47;;;21.80;96.90;;;;;;5073516;28;20476;-47
2023/06/19 06:09:16;;;;;;;18.67;17.07;;;21.80;96.80;;;;;;5073093;28;20487;-47
2023/06/19 06:11:43;;;;;;;19.30;17.80;;;21.80;96.90;;;;;;5073834;28;21030;-48
2023/06/19 06:14:10;;;;;;;16.73;15.43;;;21.80;96.90;;;;;;5073921;28;20436;-46
2023/06/19 06:16:37;;;;;;;18.70;16.97;;;21.80;96.90;;;;;;5073325;28;20438;-46
2023/06/19 06:19:04;;;;;;;17.83;16.33;;;21.90;96.90;;;;;;5072860;28;20450;-47
2023/06/19 06:21:30;;;;;;;18.43;16.83;;;21.90;96.80;;;;;;5073236;28;20445;-46
2023/06/19 06:23:57;;;;;;;17.60;15.87;;;21.90;96.80;;;;;;5073189;28;20491;-45
2023/06/19 06:26:23;;;;;;;17.87;16.47;;;21.90;97.00;;;;;;5072919;28;20927;-47
2023/06/19 06:28:50;;;;;;;24.93;17.37;;;21.90;96.60;;;;;;5073067;28;20800;-47
2023/06/19 06:31:18;;;;;;;18.43;16.93;;;22.00;96.70;;;;;;5055004;28;20450;-46
2023/06/19 06:33:45;;;;;;;18.53;17.13;;;22.00;96.60;;;;;;5072800;28;20430;-46
2023/06/19 06:36:11;;;;;;;18.30;16.50;;;22.10;96.60;;;;;;5072998;28;20452;-47
2023/06/19 06:38:38;;;;;;;20.17;18.03;;;22.10;96.50;;;;;;5072004;28;20449;-47
2023/06/19 06:41:04;;;;;;;19.03;17.20;;;22.20;96.40;;;;;;5072912;28;20448;-47
2023/06/19 06:43:31;;;;;;;18.17;16.57;;;22.30;96.40;;;;;;5072337;28;20442;-47
2023/06/19 06:45:57;;;;;;;19.20;17.40;;;22.30;96.30;;;;;;5072304;28;20438;-47
2023/06/19 06:48:25;;;;;;;17.23;15.93;;;22.30;96.20;;;;;;5072184;28;20504;-46
2023/06/19 06:50:58;;;;;;;18.50;16.90;;;22.40;96.10;;;;;;5072336;28;20436;-47
2023/06/19 06:53:25;;;;;;;18.10;16.70;;;22.40;96.00;;;;;;5072556;28;20539;-47
2023/06/19 06:55:52;;;;;;;17.90;16.40;;;22.50;96.00;;;;;;5072369;28;20427;-47
2023/06/19 06:58:18;;;;;;;18.50;17.00;;;22.50;95.90;;;;;;5072174;28;20450;-46
2023/06/19 07:00:45;;;;;;;19.83;16.60;;;22.60;95.80;;;;;;5072241;28;20455;-46
2023/06/19 07:03:13;;;;;;;17.40;15.90;;;22.60;95.70;;;;;;5072019;28;20437;-46
2023/06/19 07:05:41;;;;;;;17.63;16.23;;;22.30;95.40;;;;;;5072520;28;20903;-47
2023/06/19 07:08:07;;;;;;;19.27;17.57;;;22.70;95.50;;;;;;5072422;28;20487;-48
2023/06/19 07:10:34;;;;;;;17.50;16.10;;;22.80;95.50;;;;;;5072529;28;20427;-46
2023/06/19 07:13:00;;;;;;;18.30;16.40;;;22.90;95.40;;;;;;5072090;28;20430;-47
2023/06/19 07:15:27;;;;;;;18.17;16.40;;;23.00;95.40;;;;;;5072543;28;20443;-47
2023/06/19 07:17:54;;;;;;;19.90;17.73;;;23.10;95.30;;;;;;5072892;28;20993;-46
2023/06/19 07:20:21;;;;;;;19.57;16.87;;;23.10;95.10;;;;;;5072282;28;20450;-46
2023/06/19 07:22:51;;;;;;;17.77;15.93;;;23.20;95.00;;;;;;5072574;28;20450;-47
2023/06/19 07:25:18;;;;;;;17.70;16.03;;;23.40;94.90;;;;;;5072446;28;20432;-47
2023/06/19 07:27:45;;;;;;;17.00;15.70;;;23.40;94.80;;;;;;5072362;28;21036;-47
2023/06/19 07:30:12;;;;;;;18.90;17.10;;;23.40;94.70;;;;;;5072298;28;20439;-48
2023/06/19 07:32:39;;;;;;;18.13;16.73;;;23.50;94.60;;;;;;5072030;28;20445;-47
2023/06/19 07:35:07;;;;;;;17.20;15.63;;;23.50;94.40;;;;;;5071940;28;20436;-49
2023/06/19 07:37:33;;;;;;;18.30;16.70;;;23.50;94.30;;;;;;5072178;28;20428;-48
2023/06/19 07:40:01;;;;;;;17.87;16.47;;;23.60;94.20;;;;;;5053854;28;20483;-46
2023/06/19 07:42:28;;;;;;;18.27;16.37;;;23.70;94.10;;;;;;5072036;28;20435;-46
2023/06/19 07:44:55;;;;;;;17.80;16.40;;;23.80;94.00;;;;;;5072326;28;20448;-46
2023/06/19 07:47:21;;;;;;;16.97;15.30;;;24.20;94.00;;;;;;5072153;28;20837;-47
2023/06/19 07:49:48;;;;;;;16.37;15.07;;;24.00;93.80;;;;;;5071408;28;20455;-46
2023/06/19 07:52:15;;;;;;;17.57;14.97;;;24.00;93.70;;;;;;5071894;28;20441;-46
2023/06/19 07:54:53;;;;;;;16.67;15.27;;;24.20;93.60;;;;;;5071845;28;20527;-46
2023/06/19 07:57:20;;;;;;;17.80;16.10;;;24.30;93.40;;;;;;5071756;28;20913;-47
2023/06/19 07:59:47;;;;;;;17.40;15.70;;;24.30;93.30;;;;;;5071044;28;20442;-47
2023/06/19 08:02:14;;;;;;;17.40;16.00;;;24.30;93.10;;;;;;5071765;28;20480;-47
2023/06/19 08:04:40;;;;;;;17.77;16.30;;;24.20;93.00;;;;;;5072301;28;20804;-46
2023/06/19 08:07:07;;;;;;;17.50;16.00;;;24.30;93.00;;;;;;5071769;28;20440;-48
2023/06/19 08:09:34;;;;;;;16.97;15.57;;;24.10;93.00;;;;;;5071088;28;20453;-48
2023/06/19 08:12:01;;;;;;;16.90;15.37;;;24.30;93.00;;;;;;5071884;28;20426;-47
2023/06/19 08:14:29;;;;;;;17.00;15.57;;;24.30;93.00;;;;;;5071686;28;20437;-48
2023/06/19 08:16:56;;;;;;;17.53;15.73;;;24.40;92.90;;;;;;5071794;28;20425;-47
2023/06/19 08:19:23;;;;;;;17.50;15.90;;;24.50;92.80;;;;;;5071521;28;20843;-47
2023/06/19 08:21:49;;;;;;;15.57;14.27;;;24.40;92.70;;;;;;5071983;28;20931;-50
2023/06/19 08:24:17;;;;;;;18.83;15.20;;;24.20;92.50;;;;;;5071847;28;20441;-47
2023/06/19 08:26:43;;;;;;;17.07;15.67;;;24.50;92.60;;;;;;5074207;28;20903;-47
2023/06/19 08:29:10;;;;;;;16.53;15.33;;;24.30;92.50;;;;;;5074753;28;20488;-48
2023/06/19 08:31:38;;;;;;;17.23;14.87;;;24.50;92.50;;;;;;5075197;28;20433;-47
2023/06/19 08:34:07;;;;;;;17.07;15.47;;;24.50;92.40;;;;;;5075402;28;20529;-47
2023/06/19 08:36:34;;;;;;;15.87;14.63;;;24.60;92.50;;;;;;5075198;28;20479;-47
2023/06/19 08:39:01;;;;;;;16.00;14.70;;;24.70;92.40;;;;;;5057354;28;20465;-47
2023/06/19 08:41:28;;;;;;;15.10;13.80;;;24.50;92.10;;;;;;5075081;28;20438;-47
2023/06/19 08:43:55;;;;;;;16.70;14.50;;;24.70;92.20;;;;;;5075162;28;20490;-47
2023/06/19 08:46:22;;;;;;;15.43;14.20;;;24.70;92.10;;;;;;5057099;28;20441;-46
2023/06/19 08:48:56;;;;;;;16.10;14.53;;;24.70;92.00;;;;;;5056729;28;20490;-47
2023/06/19 08:51:23;;;;;;;15.57;14.27;;;24.70;91.90;;;;;;5074825;28;20748;-47
2023/06/19 08:53:54;;;;;;;16.23;14.93;;;24.80;91.80;;;;;;5056843;28;20445;-46
2023/06/19 08:56:21;;;;;;;14.70;13.40;;;24.90;91.60;;;;;;5074505;28;20528;-46
2023/06/19 08:58:48;;;;;;;15.17;13.87;;;24.90;91.50;;;;;;5074513;28;20449;-47
2023/06/19 09:01:19;;;;;;;15.70;14.10;;;24.90;91.50;;;;;;5056450;28;20499;-46
2023/06/19 09:03:46;;;;;;;15.63;14.27;;;25.00;91.40;;;;;;5057064;28;20561;-49
2023/06/19 09:06:16;;;;;;;17.87;15.10;;;25.00;91.50;;;;;;5075410;28;20430;-48
2023/06/19 09:08:42;;;;;;;15.33;13.90;;;25.00;91.70;;;;;;5074795;28;20969;-47
2023/06/19 09:11:09;;;;;;;14.60;13.10;;;24.70;91.60;;;;;;5074486;28;20438;-47
2023/06/19 09:13:36;;;;;;;16.47;14.83;;;24.90;92.00;;;;;;5075056;28;20433;-47
2023/06/19 09:16:05;;;;;;;15.73;14.53;;;24.80;92.10;;;;;;5056366;28;20540;-46
2023/06/19 09:18:32;;;;;;;16.50;15.10;;;24.80;92.20;;;;;;5074416;28;20996;-48
2023/06/19 09:21:00;;;;;;;15.43;14.00;;;24.60;92.20;;;;;;5074758;28;20458;-47
2023/06/19 09:23:28;;;;;;;18.70;16.10;;;24.70;92.10;;;;;;5074525;28;20426;-47
2023/06/19 09:25:59;;;;;;;15.90;14.50;;;24.80;92.10;;;;;;5056599;28;20446;-47
2023/06/19 09:28:28;;;;;;;16.70;15.07;;;24.90;92.20;;;;;;5055389;28;20493;-47
2023/06/19 09:30:57;;;;;;;15.07;13.77;;;25.00;92.00;;;;;;5074023;28;20446;-48
2023/06/19 09:33:24;;;;;;;15.90;14.50;;;25.10;91.80;;;;;;5074638;28;20430;-47
2023/06/19 09:35:51;;;;;;;15.37;14.00;;;25.10;91.70;;;;;;5073509;28;20517;-47
2023/06/19 09:38:19;;;;;;;14.77;13.63;;;25.20;91.70;;;;;;5073044;28;20487;-47
2023/06/19 09:40:48;;;;;;;15.60;14.30;;;25.30;91.40;;;;;;5055793;28;20495;-47
2023/06/19 09:43:20;;;;;;;16.23;14.70;;;25.40;91.10;;;;;;5073951;28;20445;-47
2023/06/19 09:45:50;;;;;;;14.23;13.03;;;25.50;90.80;;;;;;5073878;28;20430;-47
2023/06/19 09:48:21;;;;;;;15.00;13.70;;;25.50;90.70;;;;;;5073678;28;20550;-47
2023/06/19 09:50:59;;;;;;;15.13;13.83;;;25.60;90.50;;;;;;5055718;28;20541;-47
2023/06/19 09:53:26;;;;;;;15.40;14.20;;;25.70;90.40;;;;;;5073661;28;20434;-47
2023/06/19 09:55:55;;;;;;;15.57;14.13;;;25.50;90.20;;;;;;5073755;28;20803;-48
2023/06/19 09:58:23;;;;;;;16.83;15.40;;;25.90;90.20;;;;;;5073092;28;20454;-47
2023/06/19 10:00:51;;;;;;;15.47;14.07;;;26.00;90.00;;;;;;5073277;28;20833;-48
2023/06/19 10:03:17;;;;;;;15.13;13.93;;;26.20;89.90;;;;;;5073387;28;20461;-47
2023/06/19 10:05:44;;;;;;;15.97;14.73;;;26.20;89.60;;;;;;5073626;28;20827;-46
2023/06/19 10:08:11;;;;;;;14.50;12.90;;;26.30;89.10;;;;;;5072823;28;20847;-47
2023/06/19 10:10:47;;;;;;;15.57;14.17;;;26.40;89.00;;;;;;5073600;28;20430;-47
2023/06/19 10:13:16;;;;;;;16.10;14.60;;;26.60;88.50;;;;;;5073066;28;20487;-47
2023/06/19 10:15:44;;;;;;;37.47;24.57;;;26.60;88.50;;;;;;5073008;28;20425;-47
2023/06/19 10:18:16;;;;;;;14.90;13.63;;;26.70;88.30;;;;;;5073178;28;20445;-47
2023/06/19 10:20:44;;;;;;;15.40;14.10;;;26.70;87.90;;;;;;5073546;28;20422;-47
2023/06/19 10:23:12;;;;;;;16.20;14.80;;;26.70;87.80;;;;;;5073218;28;20438;-47
2023/06/19 10:25:43;;;;;;;16.03;14.77;;;26.70;87.40;;;;;;5073347;28;20429;-47
2023/06/19 10:28:21;;;;;;;15.30;14.10;;;26.80;87.30;;;;;;5072994;28;20485;-47
2023/06/19 10:30:54;;;;;;;15.20;14.00;;;26.90;87.20;;;;;;5072908;28;20482;-44
2023/06/19 10:33:20;;;;;;;15.50;14.30;;;27.00;86.70;;;;;;5073215;28;21013;-46
2023/06/19 10:35:47;;;;;;;15.43;14.20;;;26.90;86.20;;;;;;5073313;28;20430;-46
2023/06/19 10:38:16;;;;;;;15.50;14.30;;;27.10;85.90;;;;;;5072461;28;20484;-45
2023/06/19 10:40:43;;;;;;;13.83;12.83;;;27.20;85.60;;;;;;5073080;28;20460;-47
2023/06/19 10:43:09;;;;;;;15.33;14.13;;;27.30;85.20;;;;;;5072551;28;20465;-47
2023/06/19 10:45:38;;;;;;;15.17;13.87;;;27.30;84.90;;;;;;5072436;28;20456;-47
2023/06/19 10:48:06;;;;;;;14.77;13.60;;;27.30;84.70;;;;;;5071427;28;20474;-47
2023/06/19 10:50:38;;;;;;;15.53;14.13;;;27.40;84.80;;;;;;5072614;28;20429;-47
2023/06/19 10:53:06;;;;;;;14.13;13.03;;;27.40;84.80;;;;;;5072949;28;20433;-47
2023/06/19 10:55:33;;;;;;;14.50;13.30;;;27.40;84.50;;;;;;5072199;28;20817;-47
2023/06/19 10:57:59;;;;;;;14.10;12.90;;;27.40;84.80;;;;;;5072177;28;20440;-48
2023/06/19 11:00:28;;;;;;;14.20;13.00;;;27.40;84.90;;;;;;5071856;28;20422;-47
2023/06/19 11:02:58;;;;;;;13.90;12.80;;;27.40;85.10;;;;;;5071973;28;20999;-48
2023/06/19 11:05:26;;;;;;;15.83;14.53;;;27.50;85.20;;;;;;5072427;28;20437;-46
2023/06/19 11:07:54;;;;;;;13.70;12.40;;;27.50;85.00;;;;;;5054058;28;20453;-48
2023/06/19 11:10:22;;;;;;;14.33;13.23;;;27.40;84.50;;;;;;5071858;28;20436;-47
2023/06/19 11:12:49;;;;;;;14.53;13.33;;;27.50;84.70;;;;;;5071967;28;20441;-47
2023/06/19 11:15:16;;;;;;;13.90;12.80;;;27.50;85.70;;;;;;5071827;28;20468;-48
2023/06/19 11:17:43;;;;;;;13.87;12.50;;;27.50;84.90;;;;;;5071721;28;20426;-47
2023/06/19 11:20:14;;;;;;;13.80;12.80;;;27.40;84.50;;;;;;5071593;28;20670;-47
2023/06/19 11:22:42;;;;;;;13.23;12.00;;;27.50;83.90;;;;;;5071823;28;20925;-48
2023/06/19 11:25:10;;;;;;;13.13;12.10;;;27.60;83.30;;;;;;5053944;28;20492;-47
2023/06/19 11:27:40;;;;;;;12.70;11.53;;;27.70;82.60;;;;;;5071734;28;20436;-47
2023/06/19 11:30:09;;;;;;;13.43;12.43;;;27.80;82.00;;;;;;5071086;28;20970;-47
2023/06/19 11:32:40;;;;;;;13.23;12.17;;;27.90;81.50;;;;;;5071877;28;20433;-48
2023/06/19 11:35:09;;;;;;;14.30;12.80;;;28.00;81.10;;;;;;5072073;28;20434;-48
2023/06/19 11:37:40;;;;;;;13.17;12.27;;;28.10;80.60;;;;;;5072196;28;20864;-47
2023/06/19 11:40:12;;;;;;;13.03;12.03;;;28.30;80.30;;;;;;5053282;28;20469;-48
2023/06/19 11:42:46;;;;;;;12.47;11.40;;;28.30;79.20;;;;;;5053957;28;20442;-46
2023/06/19 11:45:13;;;;;;;14.47;13.27;;;28.20;78.60;;;;;;5071871;28;20437;-48
2023/06/19 11:47:40;;;;;;;12.63;11.53;;;28.30;78.40;;;;;;5053540;28;20606;-47
2023/06/19 11:50:08;;;;;;;13.07;11.53;;;28.40;77.70;;;;;;5071226;28;20695;-47
2023/06/19 11:52:36;;;;;;;14.70;13.60;;;28.50;77.20;;;;;;5071447;28;20452;-47
2023/06/19 11:55:03;;;;;;;12.80;11.80;;;28.60;77.10;;;;;;5071441;28;20437;-48
2023/06/19 11:57:30;;;;;;;12.07;11.07;;;28.50;76.30;;;;;;5071589;28;20487;-47
2023/06/19 11:59:56;;;;;;;11.60;10.70;;;28.50;76.00;;;;;;5072789;28;21038;-47
2023/06/19 12:02:23;;;;;;;12.77;11.43;;;28.40;75.90;;;;;;5075770;28;20438;-47
2023/06/19 12:04:50;;;;;;;13.00;11.73;;;28.40;75.80;;;;;;5075631;28;20444;-47
2023/06/19 12:07:16;;;;;;;12.20;11.20;;;28.30;75.80;;;;;;5075396;28;20441;-47
2023/06/19 12:09:44;;;;;;;13.43;12.20;;;28.30;75.80;;;;;;5074696;28;20481;-48
2023/06/19 12:12:11;;;;;;;13.13;12.20;;;28.20;75.80;;;;;;5075197;28;20435;-48
2023/06/19 12:14:39;;;;;;;13.20;12.17;;;28.20;76.20;;;;;;5075352;28;20445;-47
2023/06/19 12:17:06;;;;;;;14.83;13.53;;;28.10;76.30;;;;;;5075250;28;20767;-47
2023/06/19 12:19:32;;;;;;;12.63;11.63;;;28.10;76.10;;;;;;5074811;28;20449;-48
2023/06/19 12:21:59;;;;;;;11.40;10.50;;;28.10;76.00;;;;;;5074803;28;20430;-47
2023/06/19 12:24:26;;;;;;;12.50;11.30;;;28.10;75.30;;;;;;5074750;28;20833;-48
2023/06/19 12:26:54;;;;;;;14.27;12.83;;;28.20;74.60;;;;;;5057057;28;20444;-48
2023/06/19 12:29:21;;;;;;;12.27;11.17;;;28.30;74.40;;;;;;5056092;28;20530;-48